Time;durP1;ratioP1;P1;durP2;ratioP2;P2;SDS_P1;SDS_P2;PMS_P1;PMS_P2;Temp;Humidity;BMP_temperature;BMP_pressure;BME280_temperature;BME280_humidity;BME280_pressure;Samples;Min_cycle;Max_cycle;Signal;HPM_P1;HPM_P2
2022/02/07 00:00:21;;;;;;;12.18;5.97;;;4.00;64.70;;;;;;5157359;27;20483;-41
2022/02/07 00:05:22;;;;;;;9.90;5.70;;;4.00;64.70;;;;;;5157090;27;20037;-41
2022/02/07 00:07:47;;;;;;;10.95;6.15;;;4.00;64.70;;;;;;5157166;27;20064;-35
2022/02/07 00:10:13;;;;;;;11.93;6.03;;;4.00;64.60;;;;;;5157086;27;20027;-35
2022/02/07 00:12:41;;;;;;;10.75;6.10;;;4.00;64.70;;;;;;5157401;27;20038;-40
2022/02/07 00:15:08;;;;;;;9.25;6.00;;;3.90;64.60;;;;;;5156483;27;20062;-35
2022/02/07 00:17:35;;;;;;;12.30;6.00;;;3.90;64.60;;;;;;5157127;27;20094;-35
2022/02/07 00:20:04;;;;;;;12.75;6.10;;;3.90;64.60;;;;;;5156873;27;20027;-40
2022/02/07 00:22:30;;;;;;;10.88;6.25;;;3.80;64.70;;;;;;5157493;27;20034;-35
2022/02/07 00:24:56;;;;;;;9.80;6.20;;;3.80;64.90;;;;;;5156385;27;20411;-40
2022/02/07 00:27:22;;;;;;;10.38;5.70;;;3.70;65.00;;;;;;5157143;27;20095;-35
2022/02/07 00:29:47;;;;;;;12.57;6.30;;;3.70;65.10;;;;;;5156490;27;20026;-36
2022/02/07 00:32:13;;;;;;;11.98;6.38;;;3.60;65.30;;;;;;5157312;27;20510;-35
2022/02/07 00:34:39;;;;;;;12.15;6.45;;;3.50;65.40;;;;;;5156458;27;20054;-36
2022/02/07 00:37:04;;;;;;;14.05;7.00;;;3.50;65.50;;;;;;5157075;27;20052;-40
2022/02/07 00:39:38;;;;;;;11.07;6.63;;;3.50;65.70;;;;;;5159685;27;20030;-40
2022/02/07 00:42:06;;;;;;;13.48;7.63;;;3.40;65.80;;;;;;5161012;27;20050;-35
2022/02/07 00:44:33;;;;;;;10.48;6.22;;;3.40;65.90;;;;;;5160388;27;20083;-40
2022/02/07 00:47:05;;;;;;;9.85;5.90;;;3.30;65.90;;;;;;5160517;27;20038;-41
2022/02/07 00:49:31;;;;;;;10.77;6.85;;;3.30;65.90;;;;;;5160300;27;20037;-35
2022/02/07 00:51:56;;;;;;;12.60;6.63;;;3.30;66.00;;;;;;5160597;27;20486;-40
2022/02/07 00:54:22;;;;;;;10.85;6.35;;;3.20;66.00;;;;;;5160260;27;20018;-35
2022/02/07 00:56:49;;;;;;;15.10;6.50;;;3.20;66.10;;;;;;5160306;27;20106;-35
2022/02/07 00:59:14;;;;;;;14.23;6.72;;;3.20;66.30;;;;;;5141940;27;20106;-35
2022/02/07 01:01:40;;;;;;;11.70;6.90;;;3.20;66.30;;;;;;5159870;27;20118;-35
2022/02/07 01:04:06;;;;;;;11.55;6.82;;;3.10;66.30;;;;;;5159979;27;20034;-35
2022/02/07 01:06:31;;;;;;;12.15;7.30;;;3.10;66.40;;;;;;5160023;27;20078;-35
2022/02/07 01:09:19;;;;;;;13.10;7.25;;;3.10;66.50;;;;;;5159692;27;20062;-35
2022/02/07 01:19:57;;;;;;;12.35;7.18;;;3.00;66.70;;;;;;5159533;27;20107;-40
2022/02/07 01:23:01;;;;;;;15.02;7.43;;;3.00;66.90;;;;;;5159754;27;20023;-42
2022/02/07 01:55:33;;;;;;;11.43;7.70;;;2.80;67.30;;;;;;5094671;28;20020;-41
2022/02/07 01:58:00;;;;;;;12.77;7.70;;;2.70;67.30;;;;;;5094940;28;20032;-35
2022/02/07 02:00:26;;;;;;;13.52;7.68;;;2.70;67.40;;;;;;5131037;27;20384;-35
2022/02/07 02:02:52;;;;;;;16.38;7.68;;;2.70;67.50;;;;;;5159029;27;20030;-40
2022/02/07 02:05:17;;;;;;;12.98;7.93;;;2.70;67.70;;;;;;5158438;27;20030;-36
2022/02/07 02:07:44;;;;;;;15.80;8.13;;;2.70;67.80;;;;;;5158962;27;20045;-35
2022/02/07 02:10:10;;;;;;;13.68;7.50;;;2.70;67.90;;;;;;5158443;27;20027;-36
2022/02/07 02:12:48;;;;;;;14.77;8.18;;;2.70;68.00;;;;;;5158894;27;20065;-35
2022/02/07 02:15:30;;;;;;;13.43;8.32;;;2.70;68.10;;;;;;5158321;27;20022;-40
2022/02/07 02:34:42;;;;;;;15.25;8.85;;;2.50;68.70;;;;;;5158165;27;20115;-41
2022/02/07 02:47:21;;;;;;;17.17;9.35;;;2.50;68.90;;;;;;5158499;27;20045;-35
2022/02/07 02:50:00;;;;;;;16.13;9.52;;;2.50;68.90;;;;;;5157686;27;20031;-35
2022/02/07 02:52:26;;;;;;;15.55;8.63;;;2.50;68.90;;;;;;5158498;27;20050;-43
2022/02/07 02:54:52;;;;;;;14.73;9.05;;;2.50;68.90;;;;;;5157743;27;20395;-40
2022/02/07 02:57:17;;;;;;;16.23;9.30;;;2.50;68.90;;;;;;5158238;27;20035;-35
2022/02/07 02:59:43;;;;;;;13.65;8.88;;;2.50;68.90;;;;;;5157344;27;20319;-35
2022/02/07 03:02:09;;;;;;;14.20;8.88;;;2.50;69.00;;;;;;5157634;27;20062;-40
2022/02/07 03:04:34;;;;;;;16.48;8.85;;;2.50;69.00;;;;;;5157493;27;20027;-35
2022/02/07 03:07:00;;;;;;;18.38;8.80;;;2.50;69.00;;;;;;5157892;27;20038;-40
2022/02/07 03:09:26;;;;;;;14.00;8.63;;;2.50;69.00;;;;;;5157235;27;20042;-35
2022/02/07 03:11:52;;;;;;;15.15;8.95;;;2.60;69.00;;;;;;5157707;27;20035;-40
2022/02/07 03:14:35;;;;;;;15.38;8.68;;;2.60;69.00;;;;;;5157702;27;20022;-40
2022/02/07 03:17:01;;;;;;;17.83;8.93;;;2.60;69.00;;;;;;5158021;27;20042;-40
2022/02/07 03:19:26;;;;;;;14.82;9.18;;;2.60;69.00;;;;;;5157297;27;20027;-35
2022/02/07 03:21:52;;;;;;;15.32;8.68;;;2.50;68.90;;;;;;5157821;27;20031;-35
2022/02/07 03:24:18;;;;;;;18.23;8.52;;;2.50;69.00;;;;;;5157698;27;20034;-35
2022/02/07 03:26:45;;;;;;;15.73;8.75;;;2.50;69.00;;;;;;5157280;27;20049;-41
2022/02/07 03:29:14;;;;;;;17.48;9.38;;;2.50;69.00;;;;;;5157350;27;20048;-35
2022/02/07 03:31:40;;;;;;;15.55;8.82;;;2.50;69.10;;;;;;5157120;27;20039;-40
2022/02/07 03:34:06;;;;;;;15.50;8.40;;;2.50;69.00;;;;;;5157271;27;20179;-35
2022/02/07 03:36:33;;;;;;;15.50;9.35;;;2.50;69.00;;;;;;5157363;27;20022;-35
2022/02/07 03:39:00;;;;;;;16.10;9.07;;;2.50;69.00;;;;;;5157652;27;20426;-39
2022/02/07 03:41:26;;;;;;;14.68;8.95;;;2.60;69.10;;;;;;5157060;27;20022;-35
2022/02/07 03:43:52;;;;;;;14.38;8.73;;;2.60;69.10;;;;;;5157390;27;20030;-40
2022/02/07 03:46:18;;;;;;;16.48;9.15;;;2.60;69.20;;;;;;5157112;27;20033;-40
2022/02/07 03:48:43;;;;;;;18.38;8.95;;;2.60;69.10;;;;;;5157691;27;20454;-40
2022/02/07 03:51:09;;;;;;;16.20;9.07;;;2.60;69.10;;;;;;5156767;27;20026;-36
2022/02/07 03:53:35;;;;;;;17.80;9.55;;;2.60;69.20;;;;;;5157687;27;20111;-40
2022/02/07 03:56:01;;;;;;;15.00;9.02;;;2.60;69.10;;;;;;5156833;27;20023;-35
2022/02/07 03:58:27;;;;;;;15.95;9.43;;;2.60;69.10;;;;;;5157658;27;20364;-40
2022/02/07 04:00:54;;;;;;;16.40;8.82;;;2.60;69.20;;;;;;5156947;27;20042;-35
2022/02/07 04:03:23;;;;;;;18.33;9.25;;;2.60;69.20;;;;;;5157472;27;20153;-41
2022/02/07 04:08:16;;;;;;;16.08;8.63;;;2.60;69.30;;;;;;5157338;27;20050;-35
2022/02/07 04:13:32;;;;;;;16.27;9.82;;;2.60;69.90;;;;;;5161196;27;20077;-35
2022/02/07 04:15:59;;;;;;;20.17;9.73;;;2.60;69.40;;;;;;5160847;27;20078;-40
2022/02/07 04:18:29;;;;;;;16.25;9.73;;;2.60;69.40;;;;;;5161200;27;20027;-35
2022/02/07 04:20:55;;;;;;;20.13;10.40;;;2.60;69.40;;;;;;5160410;27;20027;-35
2022/02/07 04:23:21;;;;;;;15.02;9.50;;;2.60;69.40;;;;;;5161288;27;20034;-41
2022/02/07 04:25:46;;;;;;;19.63;10.30;;;2.60;69.30;;;;;;5160442;27;20319;-35
2022/02/07 04:28:12;;;;;;;19.20;10.07;;;2.70;69.50;;;;;;5160931;27;20042;-35
2022/02/07 04:30:38;;;;;;;15.23;9.68;;;2.70;69.40;;;;;;5160133;27;20018;-35
2022/02/07 04:33:04;;;;;;;16.42;10.50;;;2.70;69.40;;;;;;5161085;27;20029;-35
2022/02/07 04:35:30;;;;;;;21.80;11.18;;;2.70;69.30;;;;;;5160471;27;20101;-35
2022/02/07 04:37:55;;;;;;;24.50;11.73;;;2.70;69.30;;;;;;5160914;27;20042;-35
2022/02/07 04:40:21;;;;;;;16.60;9.77;;;2.70;69.30;;;;;;5160570;27;20050;-36
2022/02/07 04:42:47;;;;;;;17.73;9.90;;;2.70;69.20;;;;;;5160746;27;20377;-35
2022/02/07 04:45:28;;;;;;;17.48;10.18;;;2.70;69.20;;;;;;5160439;27;20478;-40
2022/02/07 04:58:40;;;;;;;15.77;9.75;;;2.80;68.90;;;;;;5160914;27;20430;-40
2022/02/07 05:03:35;;;;;;;19.42;10.52;;;2.80;68.90;;;;;;5160364;27;20035;-35
2022/02/07 05:14:18;;;;;;;17.88;10.10;;;2.80;68.80;;;;;;5159678;27;20045;-35
2022/02/07 05:16:46;;;;;;;17.75;10.43;;;2.80;68.80;;;;;;5159502;27;20062;-40
2022/02/07 05:19:12;;;;;;;25.40;11.60;;;2.80;68.70;;;;;;5159254;27;20030;-41
2022/02/07 05:21:38;;;;;;;30.15;13.15;;;2.90;68.80;;;;;;5159147;27;20027;-40
2022/02/07 05:24:04;;;;;;;27.38;12.25;;;2.90;68.80;;;;;;5158697;27;20114;-40
2022/02/07 05:26:29;;;;;;;20.60;10.18;;;2.90;68.90;;;;;;5159383;27;20270;-35
2022/02/07 05:28:59;;;;;;;29.17;12.27;;;2.90;68.90;;;;;;5159498;27;20033;-42
2022/02/07 05:31:24;;;;;;;19.70;9.85;;;2.90;68.70;;;;;;5158437;27;20377;-34
2022/02/07 05:33:50;;;;;;;21.25;10.73;;;3.00;68.70;;;;;;5158853;27;20073;-40
2022/02/07 05:36:16;;;;;;;28.25;11.25;;;3.00;68.60;;;;;;5159204;27;20067;-35
2022/02/07 05:38:46;;;;;;;24.30;11.60;;;3.00;68.50;;;;;;5159634;27;20031;-35
2022/02/07 05:41:13;;;;;;;18.75;9.85;;;3.00;69.10;;;;;;5158736;27;20061;-35
2022/02/07 05:43:41;;;;;;;19.08;9.85;;;3.10;68.60;;;;;;5158276;27;20415;-39
2022/02/07 05:46:06;;;;;;;21.20;11.00;;;3.10;68.60;;;;;;5154918;27;20035;-40
2022/02/07 05:48:32;;;;;;;23.90;10.98;;;3.10;68.40;;;;;;5150259;27;20038;-34
2022/02/07 05:50:58;;;;;;;15.55;9.85;;;3.10;68.40;;;;;;5158606;27;20069;-40
2022/02/07 05:53:23;;;;;;;17.17;9.40;;;3.20;68.30;;;;;;5158375;27;20031;-35
2022/02/07 05:55:49;;;;;;;17.10;10.05;;;3.20;68.20;;;;;;5158340;27;20026;-34
2022/02/07 05:58:15;;;;;;;23.27;11.52;;;3.20;68.70;;;;;;5159158;27;20046;-34
2022/02/07 06:00:41;;;;;;;20.17;10.35;;;3.20;68.10;;;;;;5158321;27;20034;-36
2022/02/07 06:03:07;;;;;;;26.17;10.45;;;3.20;68.20;;;;;;5159056;27;20047;-41
2022/02/07 06:05:33;;;;;;;16.20;8.90;;;3.10;68.20;;;;;;5158031;27;20030;-34
2022/02/07 06:07:58;;;;;;;19.15;10.45;;;3.10;68.20;;;;;;5158573;27;20449;-40
2022/02/07 06:10:24;;;;;;;22.88;11.18;;;3.10;68.30;;;;;;5158441;27;20516;-41
2022/02/07 06:12:51;;;;;;;20.65;10.65;;;3.10;68.40;;;;;;5158684;27;20103;-34
2022/02/07 06:15:18;;;;;;;22.00;11.25;;;3.00;68.40;;;;;;5157609;27;20039;-40
2022/02/07 06:17:47;;;;;;;20.88;9.68;;;3.00;68.60;;;;;;5158169;27;20117;-35
2022/02/07 06:20:13;;;;;;;19.08;10.18;;;3.00;68.80;;;;;;5158299;27;20033;-40
2022/02/07 06:22:38;;;;;;;21.98;10.95;;;3.00;68.80;;;;;;5158462;27;20034;-34
2022/02/07 06:25:04;;;;;;;21.10;10.25;;;2.90;68.90;;;;;;5158076;27;20023;-40
2022/02/07 06:27:30;;;;;;;35.13;15.73;;;2.90;69.00;;;;;;5158440;27;20039;-34
2022/02/07 06:29:56;;;;;;;23.60;11.98;;;2.90;69.10;;;;;;5157200;27;20049;-34
2022/02/07 06:32:22;;;;;;;22.27;11.38;;;2.90;69.30;;;;;;5158159;27;20030;-35
2022/02/07 06:34:48;;;;;;;23.73;12.00;;;2.90;69.30;;;;;;5157379;27;20075;-40
2022/02/07 06:37:13;;;;;;;19.60;10.55;;;2.80;69.40;;;;;;5158245;27;20035;-34
2022/02/07 06:39:39;;;;;;;23.48;11.63;;;2.80;69.50;;;;;;5157812;27;20059;-34
2022/02/07 06:42:05;;;;;;;25.25;11.23;;;2.80;69.60;;;;;;5157813;27;20041;-34
2022/02/07 06:44:31;;;;;;;23.13;11.93;;;2.80;69.60;;;;;;5157160;27;20035;-40
2022/02/07 06:46:56;;;;;;;23.45;11.55;;;2.80;69.60;;;;;;5157791;27;20031;-40
2022/02/07 06:49:22;;;;;;;19.67;10.77;;;2.90;69.80;;;;;;5157189;27;20035;-40
2022/02/07 06:51:48;;;;;;;21.60;11.02;;;2.90;69.50;;;;;;5157628;27;20123;-34
2022/02/07 06:54:14;;;;;;;20.00;9.98;;;2.90;69.40;;;;;;5157715;27;20057;-34
2022/02/07 06:56:40;;;;;;;18.08;10.02;;;2.90;69.30;;;;;;5157533;27;20121;-35
2022/02/07 06:59:06;;;;;;;18.38;9.60;;;2.90;69.30;;;;;;5157375;27;20414;-39
2022/02/07 07:01:32;;;;;;;19.88;11.52;;;3.00;69.30;;;;;;5157174;27;20037;-40
2022/02/07 07:03:57;;;;;;;20.55;11.43;;;3.00;69.30;;;;;;5156352;27;20038;-40
2022/02/07 07:06:23;;;;;;;21.13;11.15;;;3.10;69.20;;;;;;5157404;27;20368;-34
2022/02/07 07:08:53;;;;;;;18.90;10.05;;;3.10;68.90;;;;;;5157314;27;20096;-34
2022/02/07 07:11:22;;;;;;;22.88;11.57;;;3.10;68.80;;;;;;5156900;27;20430;-40
2022/02/07 07:13:53;;;;;;;22.95;10.35;;;3.10;68.70;;;;;;5157483;27;20035;-40
2022/02/07 07:18:56;;;;;;;18.48;9.07;;;3.20;68.40;;;;;;5157662;27;20062;-34
2022/02/07 07:21:23;;;;;;;22.30;11.10;;;3.30;68.20;;;;;;5156541;27;20054;-34
2022/02/07 07:23:49;;;;;;;17.55;9.60;;;3.30;68.10;;;;;;5157293;27;20045;-39
2022/02/07 07:26:15;;;;;;;23.55;13.65;;;3.40;68.10;;;;;;5156950;27;20019;-40
2022/02/07 07:28:41;;;;;;;18.90;10.20;;;3.40;67.90;;;;;;5157770;27;20054;-34
2022/02/07 07:31:10;;;;;;;18.55;9.77;;;3.50;67.50;;;;;;5157050;27;20023;-34
2022/02/07 07:33:37;;;;;;;21.33;9.60;;;3.50;67.40;;;;;;5157410;27;20029;-40
2022/02/07 07:36:03;;;;;;;25.17;11.63;;;3.60;67.00;;;;;;5156918;27;20361;-39
2022/02/07 07:38:29;;;;;;;21.40;9.85;;;3.60;67.00;;;;;;5157759;27;20034;-40
2022/02/07 07:40:55;;;;;;;25.20;11.00;;;3.60;67.10;;;;;;5156909;27;20089;-34
2022/02/07 07:43:21;;;;;;;17.33;8.80;;;3.70;67.10;;;;;;5157393;27;20031;-34
2022/02/07 07:45:54;;;;;;;19.98;10.18;;;3.70;66.70;;;;;;5156487;27;20343;-40
2022/02/07 07:48:23;;;;;;;17.92;9.20;;;3.70;66.80;;;;;;5161043;27;20110;-34
2022/02/07 08:03:48;;;;;;;18.27;10.75;;;4.00;66.00;;;;;;5161557;27;20031;-40
2022/02/07 08:06:22;;;;;;;19.45;8.88;;;4.00;65.80;;;;;;5160542;27;20022;-40
2022/02/07 08:09:02;;;;;;;19.48;10.82;;;3.90;65.80;;;;;;5160545;27;20057;-40
2022/02/07 08:11:28;;;;;;;17.43;8.93;;;3.90;65.60;;;;;;5160696;27;20395;-34
2022/02/07 08:13:55;;;;;;;15.38;7.63;;;3.90;65.80;;;;;;5160865;27;20022;-34
2022/02/07 08:16:21;;;;;;;12.45;7.20;;;3.90;65.60;;;;;;5160346;27;20045;-35
2022/02/07 08:18:46;;;;;;;18.52;8.50;;;3.90;65.80;;;;;;5160934;27;20398;-40
2022/02/07 08:21:12;;;;;;;16.85;7.85;;;3.90;65.90;;;;;;5160309;27;20424;-34
2022/02/07 08:23:39;;;;;;;18.60;10.40;;;3.90;66.20;;;;;;5159892;27;20041;-39
2022/02/07 08:26:06;;;;;;;17.35;8.25;;;4.00;66.70;;;;;;5160720;27;20110;-34
2022/02/07 08:28:31;;;;;;;16.30;8.52;;;4.00;67.10;;;;;;5160600;27;20035;-34
2022/02/07 08:30:57;;;;;;;19.95;8.85;;;4.00;67.30;;;;;;5160036;27;20367;-34
2022/02/07 08:33:23;;;;;;;18.27;9.45;;;4.10;67.50;;;;;;5160882;27;20098;-34
2022/02/07 08:35:49;;;;;;;16.05;9.07;;;4.10;67.50;;;;;;5159822;27;20433;-35
2022/02/07 08:38:16;;;;;;;20.17;10.73;;;4.20;67.60;;;;;;5160885;27;20106;-40
2022/02/07 08:40:42;;;;;;;12.57;8.05;;;4.20;68.10;;;;;;5159989;27;20095;-34
2022/02/07 08:43:07;;;;;;;17.65;9.48;;;4.20;68.30;;;;;;5160678;27;20027;-40
2022/02/07 08:45:33;;;;;;;15.20;8.95;;;4.20;68.30;;;;;;5159796;27;20411;-40
2022/02/07 08:47:59;;;;;;;17.77;9.65;;;4.30;68.40;;;;;;5159985;27;20031;-39
2022/02/07 08:50:27;;;;;;;15.80;9.10;;;4.30;68.40;;;;;;5159699;27;20018;-34
2022/02/07 08:52:55;;;;;;;14.10;9.20;;;4.30;68.50;;;;;;5160125;27;20035;-34
2022/02/07 08:55:28;;;;;;;19.40;10.50;;;4.20;68.80;;;;;;5159528;27;20445;-34
2022/02/07 08:57:58;;;;;;;28.92;15.63;;;4.20;69.10;;;;;;5159463;27;20171;-39
2022/02/07 09:00:39;;;;;;;17.20;10.23;;;4.30;69.30;;;;;;5157667;27;20413;-40
2022/02/07 09:11:09;;;;;;;17.95;9.50;;;4.10;69.70;;;;;;5138620;27;20027;-34
2022/02/07 09:13:37;;;;;;;16.88;10.02;;;4.10;70.00;;;;;;5139153;27;20027;-40
2022/02/07 09:16:16;;;;;;;28.65;13.63;;;4.00;70.20;;;;;;5138716;27;20319;-47
2022/02/07 09:18:42;;;;;;;17.80;9.88;;;4.00;70.40;;;;;;5139218;27;20038;-42
2022/02/07 09:21:09;;;;;;;20.40;11.18;;;3.90;70.30;;;;;;5138722;27;20106;-43
2022/02/07 09:23:36;;;;;;;24.92;11.15;;;3.90;70.60;;;;;;5138476;27;20035;-42
2022/02/07 09:26:03;;;;;;;20.98;10.63;;;3.90;70.70;;;;;;5138126;27;20023;-44
2022/02/07 09:28:30;;;;;;;29.80;13.32;;;3.90;70.80;;;;;;5138950;27;20039;-38
2022/02/07 09:30:55;;;;;;;38.28;20.27;;;4.00;70.90;;;;;;5138177;27;20035;-44
2022/02/07 09:33:22;;;;;;;300.63;156.48;;;4.00;71.10;;;;;;5138859;27;20072;-43
2022/02/07 09:35:54;;;;;;;31.13;16.50;;;4.10;71.30;;;;;;5137956;27;20030;-43
2022/02/07 09:38:21;;;;;;;25.23;14.30;;;4.20;71.40;;;;;;5138813;27;20034;-45
2022/02/07 09:40:51;;;;;;;40.88;18.70;;;4.20;71.20;;;;;;5137777;27;20035;-44
2022/02/07 09:43:19;;;;;;;25.35;12.80;;;4.30;70.90;;;;;;5138416;27;20062;-38
2022/02/07 09:45:48;;;;;;;29.73;15.00;;;4.40;70.70;;;;;;5136818;27;20041;-38
2022/02/07 09:48:15;;;;;;;30.15;15.45;;;4.40;70.10;;;;;;5138412;27;20031;-45
2022/02/07 09:50:41;;;;;;;37.67;15.57;;;4.50;70.20;;;;;;5138049;27;20039;-44
2022/02/07 09:53:07;;;;;;;30.77;15.38;;;4.50;70.00;;;;;;5138466;27;20030;-38
2022/02/07 09:55:33;;;;;;;43.38;17.92;;;4.60;70.10;;;;;;5137594;27;20323;-38
2022/02/07 09:57:59;;;;;;;26.45;14.38;;;4.70;70.20;;;;;;5138261;27;20039;-38
2022/02/07 10:00:36;;;;;;;26.35;13.40;;;4.80;70.00;;;;;;5137562;27;20484;-37
2022/02/07 10:03:16;;;;;;;54.95;25.63;;;4.90;69.20;;;;;;5137812;27;20336;-43
2022/02/07 10:05:57;;;;;;;27.92;15.27;;;5.00;69.10;;;;;;5137448;27;20031;-38
2022/02/07 10:19:56;;;;;;;29.48;15.15;;;5.50;67.60;;;;;;5138083;27;20548;-38
2022/02/07 10:39:25;;;;;;;27.50;12.73;;;6.00;66.00;;;;;;5137404;27;20121;-38
2022/02/07 10:44:43;;;;;;;18.70;9.20;;;6.10;66.00;;;;;;5137152;27;20080;-38
2022/02/07 10:47:17;;;;;;;15.38;7.25;;;6.20;66.10;;;;;;5137465;27;20200;-38
2022/02/07 10:50:08;;;;;;;13.35;6.80;;;6.30;65.70;;;;;;5127333;27;20031;-38
2022/02/07 10:52:53;;;;;;;14.00;7.63;;;6.30;65.00;;;;;;5117424;27;20078;-38
2022/02/07 10:55:21;;;;;;;11.73;7.70;;;6.30;64.60;;;;;;5121243;27;20027;-46
2022/02/07 10:57:48;;;;;;;13.77;8.48;;;6.20;64.30;;;;;;5117429;27;20038;-38
2022/02/07 11:00:15;;;;;;;17.67;9.85;;;6.20;64.20;;;;;;5127587;27;20027;-38
2022/02/07 11:05:11;;;;;;;18.48;10.10;;;6.10;64.20;;;;;;5137660;27;20023;-45
2022/02/07 11:07:37;;;;;;;18.73;8.53;;;6.10;63.80;;;;;;5147285;27;20031;-43
2022/02/07 11:10:28;;;;;;;16.50;9.25;;;6.00;63.70;;;;;;5136019;27;20260;-38
2022/02/07 11:15:42;;;;;;;;;;;6.00;63.90;;;;;;5127527;27;20142;-39
2022/02/07 11:18:25;;;;;;;16.83;8.43;;;6.00;64.00;;;;;;5136841;27;19958;-38
2022/02/07 11:21:09;;;;;;;14.93;8.80;;;6.00;63.70;;;;;;5136000;27;20031;-45
2022/02/07 11:23:48;;;;;;;14.23;9.02;;;6.00;63.50;;;;;;5132768;27;20039;-38
2022/02/07 11:26:31;;;;;;;14.20;8.63;;;5.90;63.50;;;;;;5126188;27;20019;-45
2022/02/07 11:28:57;;;;;;;19.00;10.85;;;5.90;63.50;;;;;;5126592;28;20031;-44
2022/02/07 11:31:32;;;;;;;15.77;9.88;;;5.80;63.70;;;;;;5124847;28;20485;-37
2022/02/07 11:34:13;;;;;;;20.08;9.88;;;5.90;63.90;;;;;;5125921;28;20063;-43
2022/02/07 11:36:41;;;;;;;18.30;10.30;;;5.90;63.90;;;;;;5125477;28;20442;-46
2022/02/07 11:39:13;;;;;;;19.38;10.40;;;5.80;63.90;;;;;;5129940;28;20027;-45
2022/02/07 11:42:03;;;;;;;17.55;10.13;;;5.80;64.30;;;;;;5136068;28;20472;-39
2022/02/07 11:44:52;;;;;;;20.98;10.15;;;5.70;64.30;;;;;;5135909;28;20031;-47
2022/02/07 11:47:24;;;;;;;16.90;9.90;;;5.70;64.60;;;;;;5136491;28;20036;-43
2022/02/07 11:49:52;;;;;;;16.30;9.98;;;5.70;64.80;;;;;;5136117;28;20429;-44
2022/02/07 11:52:42;;;;;;;18.10;10.05;;;5.70;65.00;;;;;;5116605;28;20171;-47
2022/02/07 11:55:19;;;;;;;17.25;10.27;;;5.70;65.00;;;;;;5122959;28;20031;-43
2022/02/07 11:58:09;;;;;;;17.65;10.68;;;5.70;65.30;;;;;;5107328;28;20042;-38
2022/02/07 12:00:44;;;;;;;17.67;10.10;;;5.70;65.50;;;;;;5120218;28;20414;-45
2022/02/07 12:03:13;;;;;;;18.40;10.85;;;5.70;65.70;;;;;;5133197;28;20026;-47
2022/02/07 12:05:48;;;;;;;20.60;11.15;;;5.70;65.90;;;;;;5125002;28;20016;-45
2022/02/07 12:08:16;;;;;;;20.27;10.73;;;5.60;66.10;;;;;;5135622;27;20043;-45
2022/02/07 12:11:02;;;;;;;17.60;11.00;;;5.50;66.60;;;;;;5144223;27;20122;-45
2022/02/07 12:13:38;;;;;;;19.23;11.07;;;5.50;67.10;;;;;;5157316;27;20026;-38
2022/02/07 12:16:17;;;;;;;21.35;11.35;;;5.50;67.90;;;;;;5156601;27;20352;-44
2022/02/07 12:18:46;;;;;;;22.02;12.18;;;5.40;68.40;;;;;;5157139;27;20113;-43
2022/02/07 12:21:27;;;;;;;20.67;11.63;;;5.40;68.90;;;;;;5156511;27;20026;-43
2022/02/07 12:24:00;;;;;;;20.38;12.13;;;5.30;69.50;;;;;;5156383;27;20087;-38
2022/02/07 12:26:26;;;;;;;24.75;13.02;;;5.30;69.80;;;;;;5156562;27;20096;-38
2022/02/07 12:29:02;;;;;;;26.08;12.38;;;5.20;70.30;;;;;;5156624;27;20027;-37
2022/02/07 12:31:29;;;;;;;27.65;12.45;;;5.20;70.80;;;;;;5156026;27;20030;-37
2022/02/07 12:33:59;;;;;;;21.65;12.20;;;5.10;71.20;;;;;;5159086;27;20076;-37
2022/02/07 12:36:28;;;;;;;23.67;12.07;;;5.10;71.70;;;;;;5159794;27;20018;-38
2022/02/07 12:38:55;;;;;;;21.50;12.20;;;5.00;72.10;;;;;;5160404;27;20027;-38
2022/02/07 12:41:26;;;;;;;19.60;11.20;;;5.00;72.40;;;;;;5160027;27;20409;-38
2022/02/07 12:43:54;;;;;;;21.20;11.50;;;5.00;73.00;;;;;;5160509;27;20043;-37
2022/02/07 12:46:23;;;;;;;19.60;11.88;;;4.90;73.20;;;;;;5142572;27;20070;-38
2022/02/07 12:51:37;;;;;;;27.33;12.52;;;4.80;73.90;;;;;;5137335;27;20023;-44
2022/02/07 12:54:03;;;;;;;24.50;12.40;;;4.80;74.10;;;;;;5123525;27;20304;-47
2022/02/07 12:56:30;;;;;;;23.70;12.32;;;4.70;74.40;;;;;;5147622;27;20319;-37
2022/02/07 12:58:55;;;;;;;24.25;13.20;;;4.70;74.70;;;;;;5139166;27;20159;-38
2022/02/07 13:01:21;;;;;;;23.30;13.43;;;4.70;74.70;;;;;;5138016;27;20031;-38
2022/02/07 13:04:00;;;;;;;30.08;16.15;;;4.70;74.90;;;;;;5138846;27;20023;-38
2022/02/07 13:06:31;;;;;;;26.42;14.63;;;4.70;75.00;;;;;;5137949;27;20455;-38
2022/02/07 13:09:00;;;;;;;27.85;14.48;;;4.70;75.70;;;;;;5138545;27;20058;-38
2022/02/07 13:11:31;;;;;;;28.52;13.55;;;4.70;75.30;;;;;;5137940;27;20023;-38
2022/02/07 13:13:58;;;;;;;34.47;15.93;;;4.70;75.40;;;;;;5138669;27;20098;-38
2022/02/07 13:16:30;;;;;;;27.40;15.52;;;4.70;75.60;;;;;;5138132;27;20060;-38
2022/02/07 13:19:14;;;;;;;31.52;15.88;;;4.70;75.90;;;;;;5138573;27;20047;-38
2022/02/07 13:21:46;;;;;;;30.15;17.45;;;4.70;76.10;;;;;;5138205;27;20155;-38
2022/02/07 13:24:19;;;;;;;37.15;16.67;;;4.80;76.20;;;;;;5138275;27;20442;-45
2022/02/07 13:26:53;;;;;;;38.83;18.23;;;4.90;76.60;;;;;;5137992;27;20096;-38
2022/02/07 13:29:21;;;;;;;32.22;15.93;;;4.90;76.60;;;;;;5138683;27;20058;-38
2022/02/07 13:32:05;;;;;;;33.90;14.35;;;5.00;76.40;;;;;;5137823;27;20419;-45
2022/02/07 13:34:33;;;;;;;61.80;21.58;;;5.00;76.30;;;;;;5138393;27;20114;-38
2022/02/07 13:37:31;;;;;;;60.97;21.95;;;5.10;76.40;;;;;;5137578;27;20042;-47
2022/02/07 13:40:07;;;;;;;42.72;19.58;;;5.10;76.40;;;;;;5122683;27;20108;-45
2022/02/07 13:42:38;;;;;;;45.90;18.92;;;5.10;76.30;;;;;;5140970;27;20043;-38
2022/02/07 13:45:11;;;;;;;35.63;18.40;;;5.10;76.40;;;;;;5157708;27;20050;-38
2022/02/07 13:47:40;;;;;;;38.05;17.70;;;5.00;76.40;;;;;;5152841;27;20084;-45
2022/02/07 13:50:10;;;;;;;35.60;18.88;;;5.00;76.50;;;;;;5137603;27;20446;-43
2022/02/07 13:52:44;;;;;;;39.50;22.50;;;5.00;76.90;;;;;;5142817;27;20031;-39
2022/02/07 13:55:15;;;;;;;30.73;19.08;;;5.00;77.10;;;;;;5137055;27;20033;-38
2022/02/07 13:58:08;;;;;;;41.28;20.08;;;4.90;77.30;;;;;;5138266;27;20118;-44
2022/02/07 14:00:34;;;;;;;32.50;16.23;;;4.90;77.50;;;;;;5137445;27;20072;-47
2022/02/07 14:03:25;;;;;;;38.97;17.77;;;4.90;77.50;;;;;;5151650;27;20039;-47
2022/02/07 14:05:52;;;;;;;34.92;16.00;;;4.80;77.60;;;;;;5157929;27;20037;-44
2022/02/07 14:08:36;;;;;;;30.25;16.02;;;4.80;77.80;;;;;;5158568;27;20333;-38
2022/02/07 14:11:07;;;;;;;29.08;15.98;;;4.80;77.90;;;;;;5158075;27;20073;-44
2022/02/07 14:13:39;;;;;;;31.48;15.82;;;4.80;78.30;;;;;;5150894;27;20071;-44
2022/02/07 14:16:06;;;;;;;35.15;17.15;;;4.80;78.40;;;;;;5137171;27;20034;-39
2022/02/07 14:18:33;;;;;;;39.22;17.73;;;4.80;78.40;;;;;;5137656;27;20120;-39
2022/02/07 14:21:08;;;;;;;33.38;15.43;;;4.80;78.60;;;;;;5136588;27;20027;-45
2022/02/07 14:23:34;;;;;;;32.10;16.33;;;4.70;78.60;;;;;;5137646;27;20118;-39
2022/02/07 14:26:01;;;;;;;31.80;16.15;;;4.70;78.90;;;;;;5136933;27;20058;-44
2022/02/07 14:28:27;;;;;;;33.65;18.33;;;4.70;79.10;;;;;;5137471;27;20069;-39
2022/02/07 14:30:54;;;;;;;31.13;15.63;;;4.70;79.20;;;;;;5136764;27;20027;-39
2022/02/07 14:33:20;;;;;;;29.63;15.93;;;4.70;79.20;;;;;;5137435;27;20034;-39
2022/02/07 14:35:46;;;;;;;34.83;16.13;;;4.70;79.20;;;;;;5136961;27;20027;-44
2022/02/07 14:38:12;;;;;;;29.95;16.27;;;4.70;79.20;;;;;;5137320;27;20078;-44
2022/02/07 14:40:41;;;;;;;29.38;15.50;;;4.70;79.20;;;;;;5136432;27;20042;-45
2022/02/07 14:43:07;;;;;;;33.50;18.60;;;4.70;79.10;;;;;;5136811;27;20061;-39
2022/02/07 14:48:25;;;;;;;28.30;14.48;;;4.80;78.90;;;;;;5126024;27;20415;-39
2022/02/07 14:50:52;;;;;;;29.58;15.50;;;4.80;78.70;;;;;;5136300;27;20035;-38
2022/02/07 14:53:18;;;;;;;32.00;16.67;;;4.90;78.60;;;;;;5136984;27;20035;-39
2022/02/07 14:55:44;;;;;;;36.25;19.80;;;4.90;78.50;;;;;;5135615;27;20023;-46
2022/02/07 14:58:10;;;;;;;40.63;20.35;;;5.00;78.50;;;;;;5136710;27;20414;-39
2022/02/07 15:00:36;;;;;;;29.42;16.60;;;5.00;78.40;;;;;;5136317;27;20115;-38
2022/02/07 15:03:04;;;;;;;38.60;16.60;;;5.00;78.20;;;;;;5136914;27;20035;-38
2022/02/07 15:05:31;;;;;;;32.03;16.13;;;5.10;78.10;;;;;;5136616;27;20365;-45
2022/02/07 15:07:57;;;;;;;37.13;19.52;;;5.10;77.90;;;;;;5136381;27;20104;-44
2022/02/07 15:10:23;;;;;;;33.97;17.63;;;5.10;77.90;;;;;;5135806;27;20027;-48
2022/02/07 15:12:52;;;;;;;30.17;16.75;;;5.10;77.80;;;;;;5136745;27;20034;-43
2022/02/07 15:15:18;;;;;;;33.80;16.40;;;5.20;77.60;;;;;;5135453;27;20126;-43
2022/02/07 15:17:44;;;;;;;32.50;16.83;;;5.20;77.50;;;;;;5136017;27;20114;-39
2022/02/07 15:20:12;;;;;;;38.25;17.80;;;5.20;77.50;;;;;;5135880;27;20031;-39
2022/02/07 15:22:45;;;;;;;31.75;17.52;;;5.30;77.40;;;;;;5136274;27;20046;-39
2022/02/07 15:25:17;;;;;;;33.92;18.50;;;5.30;77.20;;;;;;5135835;27;20047;-38
2022/02/07 15:27:42;;;;;;;54.45;32.33;;;5.30;77.20;;;;;;5136478;27;20039;-44
2022/02/07 15:30:08;;;;;;;38.13;21.75;;;5.40;77.20;;;;;;5135486;28;20314;-38